createdAt,value
2019-04-21T00:00:37.520Z,5.93
2019-04-21T00:03:16.519Z,5.87
2019-04-21T00:05:58.732Z,5.47
2019-04-21T00:08:41.592Z,5.87
2019-04-21T00:11:03.018Z,6.00
2019-04-21T00:13:31.325Z,6.00
2019-04-21T00:15:52.047Z,5.03
2019-04-21T00:18:31.054Z,5.43
2019-04-21T00:21:12.213Z,4.67
2019-04-21T00:23:49.911Z,5.00
2019-04-21T00:26:17.040Z,4.70
2019-04-21T00:29:02.269Z,4.70
2019-04-21T00:31:24.884Z,4.67
2019-04-21T00:33:41.011Z,4.83
2019-04-21T00:36:15.925Z,5.17
2019-04-21T00:39:12.154Z,5.30
2019-04-21T00:41:29.529Z,5.60
2019-04-21T00:43:57.243Z,8.00
2019-04-21T00:46:33.687Z,7.77
2019-04-21T00:49:03.072Z,8.33
2019-04-21T00:51:46.706Z,8.37
2019-04-21T00:54:21.248Z,8.33
2019-04-21T00:56:49.759Z,8.20
2019-04-21T00:59:19.298Z,9.80
2019-04-21T01:01:46.254Z,8.60
2019-04-21T01:04:16.207Z,8.50
2019-04-21T01:06:49.145Z,8.83
2019-04-21T01:09:22.064Z,8.17
2019-04-21T01:11:51.855Z,8.43
2019-04-21T01:14:30.278Z,8.37
2019-04-21T01:17:00.373Z,8.77
2019-04-21T01:19:25.148Z,8.10
2019-04-21T01:21:38.344Z,8.60
2019-04-21T01:24:18.624Z,8.77
2019-04-21T01:26:48.277Z,8.30
2019-04-21T01:29:35.707Z,8.43
2019-04-21T01:32:07.489Z,7.53
2019-04-21T01:34:32.966Z,8.63
2019-04-21T01:37:00.905Z,7.87
2019-04-21T01:39:41.183Z,9.20
2019-04-21T01:42:11.365Z,8.20
2019-04-21T01:44:45.001Z,9.77
2019-04-21T01:47:08.815Z,8.97
2019-04-21T01:49:29.618Z,8.20
2019-04-21T01:52:26.461Z,9.00
2019-04-21T01:55:00.440Z,8.80
2019-04-21T01:57:52.626Z,8.83
2019-04-21T02:00:13.581Z,8.27
2019-04-21T02:02:59.262Z,8.10
2019-04-21T02:05:31.318Z,8.90
2019-04-21T02:07:59.801Z,7.47
2019-04-21T02:10:41.570Z,8.70
2019-04-21T02:13:03.476Z,8.30
2019-04-21T02:15:46.456Z,8.30
2019-04-21T02:18:10.505Z,8.83
2019-04-21T02:20:29.421Z,8.57
2019-04-21T02:23:19.089Z,8.33
2019-04-21T02:25:44.243Z,8.17
2019-04-21T02:28:23.466Z,9.40
2019-04-21T02:31:01.166Z,8.63
2019-04-21T02:36:26.551Z,9.40
2019-04-21T02:38:44.880Z,11.33
2019-04-21T02:43:25.634Z,8.47
2019-04-21T02:46:05.446Z,8.70
2019-04-21T02:48:39.372Z,8.00
2019-04-21T02:54:10.481Z,8.37
2019-04-21T02:56:13.886Z,9.60
2019-04-21T02:58:58.326Z,8.60
2019-04-21T03:04:36.164Z,9.33
2019-04-21T03:07:20.102Z,9.40
2019-04-21T03:09:49.696Z,7.50
2019-04-21T03:12:22.339Z,8.60
2019-04-21T03:17:29.522Z,7.77
2019-04-21T03:30:14.243Z,8.77
2019-04-21T03:33:09.604Z,7.70
2019-04-21T03:35:49.413Z,7.40
2019-04-21T03:37:39.775Z,8.47
2019-04-21T03:40:16.664Z,8.10
2019-04-21T03:45:32.689Z,7.37
2019-04-21T03:50:22.696Z,7.53
2019-04-21T03:55:53.315Z,6.60
2019-04-21T04:04:17.996Z,6.97
2019-04-21T04:12:08.683Z,7.77
2019-04-21T04:14:37.077Z,6.23
2019-04-21T04:17:13.931Z,6.50
2019-04-21T04:24:39.560Z,6.53
2019-04-21T04:27:20.801Z,7.30
2019-04-21T04:29:48.335Z,7.30
2019-04-21T04:32:14.618Z,7.40
2019-04-21T04:34:55.064Z,7.63
2019-04-21T04:37:30.253Z,6.73
2019-04-21T04:40:03.572Z,6.87
2019-04-21T04:42:31.934Z,7.17
2019-04-21T04:45:08.347Z,7.43
2019-04-21T04:47:22.787Z,7.47
2019-04-21T04:50:15.767Z,7.40
2019-04-21T04:55:03.515Z,7.67
2019-04-21T05:00:14.506Z,7.23
2019-04-21T05:02:48.368Z,7.57
2019-04-21T05:05:13.698Z,7.40
2019-04-21T05:07:42.805Z,8.50
2019-04-21T05:10:05.889Z,7.73
2019-04-21T05:12:38.489Z,7.27
2019-04-21T05:22:44.747Z,7.43
2019-04-21T05:25:03.439Z,6.70
2019-04-21T05:27:39.904Z,6.63
2019-04-21T05:30:28.659Z,6.83
2019-04-21T05:33:06.927Z,7.03
2019-04-21T05:36:04.745Z,6.90
2019-04-21T05:38:54.713Z,7.43
2019-04-21T05:41:22.064Z,6.60
2019-04-21T05:43:56.523Z,9.10
2019-04-21T05:46:32.377Z,6.93
2019-04-21T05:49:06.822Z,7.00
2019-04-21T05:51:38.487Z,7.63
2019-04-21T05:54:14.965Z,6.43
2019-04-21T05:56:46.052Z,6.83
2019-04-21T05:59:12.222Z,7.10
2019-04-21T06:01:49.920Z,7.93
2019-04-21T06:04:25.597Z,7.03
2019-04-21T06:06:49.808Z,6.30
2019-04-21T06:09:22.532Z,6.90
2019-04-21T06:11:50.989Z,6.57
2019-04-21T06:14:25.346Z,7.07
2019-04-21T06:16:55.574Z,6.60
2019-04-21T06:19:31.175Z,6.57
2019-04-21T06:21:51.363Z,7.10
2019-04-21T06:24:31.386Z,7.10
2019-04-21T06:29:28.605Z,6.60
2019-04-21T06:32:29.490Z,6.40
2019-04-21T06:34:43.707Z,7.40
2019-04-21T06:40:12.736Z,7.37
2019-04-21T06:42:22.574Z,6.83
2019-04-21T06:44:59.678Z,6.33
2019-04-21T06:47:32.528Z,7.03
2019-04-21T06:49:53.683Z,6.87
2019-04-21T06:55:03.152Z,6.90
2019-04-21T06:57:35.487Z,6.47
2019-04-21T06:59:59.935Z,6.30
2019-04-21T07:02:43.295Z,6.50
2019-04-21T07:05:30.768Z,6.50
2019-04-21T07:07:35.191Z,6.47
2019-04-21T07:10:10.489Z,6.43
2019-04-21T07:12:39.406Z,5.93
2019-04-21T07:15:11.002Z,6.80
2019-04-21T07:17:43.586Z,6.50
2019-04-21T07:20:12.839Z,6.60
2019-04-21T07:22:47.791Z,6.43
2019-04-21T07:25:14.147Z,7.70
2019-04-21T07:27:49.274Z,6.50
2019-04-21T07:30:21.165Z,6.70
2019-04-21T07:32:56.328Z,6.97
2019-04-21T07:35:25.011Z,6.90
2019-04-21T07:37:54.219Z,6.93
2019-04-21T07:40:22.254Z,7.20
2019-04-21T07:42:51.430Z,6.67
2019-04-21T07:45:22.718Z,6.90
2019-04-21T07:48:00.876Z,6.87
2019-04-21T07:51:14.250Z,7.50
2019-04-21T07:53:59.904Z,6.67
2019-04-21T07:56:09.331Z,6.70
2019-04-21T07:58:58.164Z,6.43
2019-04-21T08:01:26.816Z,6.90
2019-04-21T08:03:59.497Z,6.80
2019-04-21T08:06:40.810Z,6.70
2019-04-21T08:09:00.968Z,6.63
2019-04-21T08:11:26.520Z,6.63
2019-04-21T08:13:57.712Z,6.33
2019-04-21T08:16:30.485Z,6.33
2019-04-21T08:19:09.750Z,6.60
2019-04-21T08:21:33.889Z,6.50
2019-04-21T08:24:08.817Z,6.40
2019-04-21T08:26:45.020Z,5.77
2019-04-21T08:29:23.276Z,5.90
2019-04-21T08:31:49.904Z,6.37
2019-04-21T08:34:14.031Z,5.97
2019-04-21T08:36:42.711Z,6.70
2019-04-21T08:39:12.934Z,6.23
2019-04-21T08:41:44.035Z,6.40
2019-04-21T08:44:24.518Z,6.27
2019-04-21T08:46:55.102Z,6.40
2019-04-21T08:49:20.321Z,6.67
2019-04-21T08:51:57.790Z,6.50
2019-04-21T08:54:26.532Z,5.67
2019-04-21T08:57:10.392Z,5.60
2019-04-21T08:59:58.690Z,6.20
2019-04-21T09:02:43.173Z,6.10
2019-04-21T09:05:04.700Z,5.87
2019-04-21T09:07:39.411Z,6.30
2019-04-21T09:10:12.656Z,5.37
2019-04-21T09:12:43.339Z,6.83
2019-04-21T09:15:14.403Z,6.50
2019-04-21T09:17:36.755Z,5.70
2019-04-21T09:20:16.917Z,5.33
2019-04-21T09:22:52.558Z,5.50
2019-04-21T09:25:25.352Z,4.87
2019-04-21T09:27:53.691Z,5.10
2019-04-21T09:30:04.893Z,5.53
2019-04-21T09:32:34.832Z,4.60
2019-04-21T09:35:09.855Z,5.07
2019-04-21T09:37:44.398Z,4.70
2019-04-21T09:40:08.829Z,4.77
2019-04-21T09:42:47.539Z,4.43
2019-04-21T09:45:12.128Z,4.00
2019-04-21T09:47:50.208Z,4.43
2019-04-21T09:50:13.501Z,3.70
2019-04-21T09:52:51.053Z,3.60
2019-04-21T09:55:19.591Z,3.67
2019-04-21T09:57:51.972Z,4.00
2019-04-21T10:00:21.138Z,4.27
2019-04-21T10:02:55.566Z,4.27
2019-04-21T10:05:21.438Z,3.73
2019-04-21T10:07:51.199Z,3.87
2019-04-21T10:10:21.243Z,4.30
2019-04-21T10:12:51.971Z,3.53
2019-04-21T10:15:23.631Z,4.00
2019-04-21T10:17:56.644Z,4.33
2019-04-21T10:20:26.497Z,3.90
2019-04-21T10:22:57.315Z,3.60
2019-04-21T10:25:28.374Z,4.17
2019-04-21T10:27:59.039Z,4.27
2019-04-21T10:30:29.031Z,3.93
2019-04-21T10:32:58.739Z,3.90
2019-04-21T10:35:28.967Z,3.97
2019-04-21T10:38:11.072Z,4.20
2019-04-21T10:40:33.492Z,3.60
2019-04-21T10:43:01.644Z,3.97
2019-04-21T10:45:32.695Z,4.07
2019-04-21T10:48:03.103Z,4.40
2019-04-21T10:50:32.719Z,3.53
2019-04-21T10:53:09.204Z,3.60
2019-04-21T10:55:54.273Z,4.00
2019-04-21T10:58:22.637Z,4.00
2019-04-21T11:00:57.841Z,4.47
2019-04-21T11:03:38.507Z,4.10
2019-04-21T11:06:08.615Z,4.30
2019-04-21T11:08:44.014Z,4.23
2019-04-21T11:11:10.076Z,4.27
2019-04-21T11:13:40.944Z,3.80
2019-04-21T11:16:11.041Z,4.40
2019-04-21T11:18:41.964Z,4.63
2019-04-21T11:21:13.076Z,4.80
2019-04-21T11:23:43.916Z,4.10
2019-04-21T11:26:13.925Z,4.23
2019-04-21T11:28:45.231Z,4.43
2019-04-21T11:31:15.426Z,4.50
2019-04-21T11:33:47.045Z,4.13
2019-04-21T11:36:17.371Z,4.80
2019-04-21T11:39:16.839Z,4.83
2019-04-21T11:41:34.020Z,5.50
2019-04-21T11:44:05.048Z,4.53
2019-04-21T11:46:36.163Z,4.30
2019-04-21T11:49:06.304Z,4.90
2019-04-21T11:51:37.302Z,4.27
2019-04-21T11:54:07.068Z,4.33
2019-04-21T11:56:37.040Z,4.60
2019-04-21T11:59:07.853Z,4.27
2019-04-21T12:01:39.312Z,4.07
2019-04-21T12:04:09.774Z,4.93
2019-04-21T12:06:45.405Z,3.97
2019-04-21T12:09:11.817Z,4.57
2019-04-21T12:11:41.630Z,4.60
2019-04-21T12:14:12.084Z,4.97
2019-04-21T12:16:41.721Z,4.47
2019-04-21T12:19:12.488Z,4.30
2019-04-21T12:21:53.510Z,4.50
2019-04-21T12:24:13.559Z,4.70
2019-04-21T12:26:44.220Z,4.43
2019-04-21T12:29:14.829Z,4.13
2019-04-21T12:32:03.566Z,4.30
2019-04-21T12:34:34.262Z,3.50
2019-04-21T12:37:04.630Z,4.70
2019-04-21T12:39:34.793Z,3.60
2019-04-21T12:42:04.766Z,4.50
2019-04-21T12:44:34.786Z,4.40
2019-04-21T12:47:05.747Z,4.30
2019-04-21T12:49:35.923Z,4.70
2019-04-21T12:52:06.001Z,4.60
2019-04-21T12:54:35.785Z,4.50
2019-04-21T12:57:05.716Z,4.20
2019-04-21T12:59:36.339Z,4.63
2019-04-21T13:02:07.501Z,4.27
2019-04-21T13:04:37.876Z,3.80
2019-04-21T13:07:07.861Z,4.50
2019-04-21T13:09:37.618Z,4.03
2019-04-21T13:12:08.882Z,4.50
2019-04-21T13:14:39.910Z,4.30
2019-04-21T13:17:10.032Z,4.90
2019-04-21T13:19:40.909Z,4.17
2019-04-21T13:22:12.106Z,4.73
2019-04-21T13:24:42.099Z,3.80
2019-04-21T13:27:12.769Z,3.97
2019-04-21T13:29:43.941Z,3.40
2019-04-21T13:32:14.408Z,3.90
2019-04-21T13:34:44.382Z,3.10
2019-04-21T13:37:15.155Z,4.37
2019-04-21T13:40:29.205Z,4.67
2019-04-21T13:42:47.686Z,5.17
2019-04-21T13:45:14.035Z,4.53
2019-04-21T13:47:43.662Z,4.40
2019-04-21T13:50:15.295Z,4.43
2019-04-21T13:52:46.733Z,4.10
2019-04-21T13:55:17.469Z,4.13
2019-04-21T13:57:48.243Z,4.60
2019-04-21T14:00:19.411Z,4.00
2019-04-21T14:02:49.498Z,4.57
2019-04-21T14:05:20.331Z,4.23
2019-04-21T14:07:50.310Z,3.90
2019-04-21T14:10:21.723Z,4.30
2019-04-21T14:12:51.956Z,3.90
2019-04-21T14:15:22.427Z,4.00
2019-04-21T14:17:53.069Z,3.80
2019-04-21T14:20:23.105Z,4.00
2019-04-21T14:22:53.901Z,3.97
2019-04-21T14:25:23.925Z,4.73
2019-04-21T14:27:54.492Z,4.13
2019-04-21T14:30:26.307Z,4.10
2019-04-21T14:32:56.328Z,3.63
2019-04-21T14:35:27.146Z,4.47
2019-04-21T14:37:58.419Z,4.10
2019-04-21T14:40:31.368Z,4.00
2019-04-21T14:43:00.351Z,4.70
2019-04-21T14:45:56.812Z,4.60
2019-04-21T14:48:55.064Z,4.73
2019-04-21T14:51:56.886Z,4.37
2019-04-21T14:54:48.831Z,3.90
2019-04-21T14:57:18.953Z,4.43
2019-04-21T14:59:49.042Z,4.00
2019-04-21T15:02:20.150Z,4.50
2019-04-21T15:04:51.230Z,4.50
2019-04-21T15:07:21.341Z,4.27
2019-04-21T15:10:02.567Z,4.17
2019-04-21T15:12:23.600Z,5.00
2019-04-21T15:14:53.881Z,4.20
2019-04-21T15:17:24.934Z,4.70
2019-04-21T15:20:01.908Z,4.47
2019-04-21T15:22:28.258Z,4.83
2019-04-21T15:24:58.501Z,4.40
2019-04-21T15:27:28.423Z,4.20
2019-04-21T15:29:58.527Z,3.73
2019-04-21T15:32:28.713Z,4.70
2019-04-21T15:34:58.482Z,5.10
2019-04-21T15:37:28.288Z,4.27
2019-04-21T15:39:58.532Z,4.77
2019-04-21T15:42:30.566Z,4.90
2019-04-21T15:45:00.950Z,4.23
2019-04-21T15:47:31.838Z,4.40
2019-04-21T15:50:07.453Z,4.70
2019-04-21T15:52:33.852Z,4.87
2019-04-21T15:55:39.019Z,6.60
2019-04-21T15:58:18.736Z,4.67
2019-04-21T16:00:54.433Z,4.60
2019-04-21T16:03:24.800Z,4.33
2019-04-21T16:05:55.815Z,4.40
2019-04-21T16:08:26.998Z,4.10
2019-04-21T16:11:00.300Z,4.00
2019-04-21T16:13:29.815Z,4.00
2019-04-21T16:15:59.471Z,5.47
2019-04-21T16:18:29.998Z,4.27
2019-04-21T16:20:59.944Z,3.80
2019-04-21T16:23:30.728Z,4.40
2019-04-21T16:26:00.345Z,3.73
2019-04-21T16:28:31.217Z,4.23
2019-04-21T16:31:02.472Z,4.37
2019-04-21T16:33:33.435Z,4.10
2019-04-21T16:36:03.022Z,4.23
2019-04-21T16:38:33.514Z,3.60
2019-04-21T16:41:05.535Z,4.67
2019-04-21T16:43:35.414Z,5.03
2019-04-21T16:46:06.834Z,4.00
2019-04-21T16:48:37.837Z,4.20
2019-04-21T16:51:07.909Z,4.20
2019-04-21T16:53:42.335Z,4.23
2019-04-21T16:56:31.228Z,3.70
2019-04-21T16:59:06.473Z,3.90
2019-04-21T17:01:36.489Z,3.70
2019-04-21T17:04:06.834Z,3.53
2019-04-21T17:06:38.285Z,3.43
2019-04-21T17:09:08.610Z,3.60
2019-04-21T17:11:40.117Z,3.90
2019-04-21T17:14:27.218Z,4.13
2019-04-21T17:17:03.722Z,3.70
2019-04-21T17:19:21.253Z,4.10
2019-04-21T17:21:45.590Z,4.27
2019-04-21T17:24:16.627Z,4.00
2019-04-21T17:26:47.795Z,3.83
2019-04-21T17:29:18.757Z,6.17
2019-04-21T17:31:49.741Z,3.93
2019-04-21T17:34:24.627Z,3.77
2019-04-21T17:36:53.037Z,4.40
2019-04-21T17:39:22.886Z,3.53
2019-04-21T17:42:05.282Z,3.90
2019-04-21T17:44:25.577Z,3.60
2019-04-21T17:47:01.390Z,3.80
2019-04-21T17:49:26.961Z,4.03
2019-04-21T17:52:18.281Z,4.40
2019-04-21T17:54:52.691Z,3.77
2019-04-21T17:57:36.619Z,4.20
2019-04-21T18:00:13.864Z,3.57
2019-04-21T18:02:47.718Z,4.00
2019-04-21T18:05:15.010Z,3.80
2019-04-21T18:07:41.957Z,3.20
2019-04-21T18:10:14.370Z,3.43
2019-04-21T18:12:41.475Z,3.80
2019-04-21T18:15:18.043Z,3.83
2019-04-21T18:17:32.211Z,3.87
2019-04-21T18:20:03.721Z,3.50
2019-04-21T18:22:55.436Z,3.87
2019-04-21T18:25:40.342Z,4.10
2019-04-21T18:27:58.694Z,3.70
2019-04-21T18:30:44.593Z,3.37
2019-04-21T18:33:22.243Z,4.00
2019-04-21T18:36:30.305Z,4.10
2019-04-21T18:39:34.194Z,4.27
2019-04-21T18:42:18.609Z,3.70
2019-04-21T18:45:32.764Z,3.83
2019-04-21T18:47:49.837Z,3.90
2019-04-21T18:50:29.431Z,4.50
2019-04-21T18:53:16.610Z,3.97
2019-04-21T18:55:43.283Z,3.37
2019-04-21T18:58:11.994Z,3.80
2019-04-21T19:00:43.650Z,3.77
2019-04-21T19:03:14.065Z,4.23
2019-04-21T19:05:50.150Z,3.70
2019-04-21T19:08:32.799Z,3.53
2019-04-21T19:11:08.265Z,3.50
2019-04-21T19:13:51.112Z,3.67
2019-04-21T19:16:28.570Z,4.10
2019-04-21T19:19:18.430Z,4.50
2019-04-21T19:21:11.224Z,3.70
2019-04-21T19:23:52.129Z,3.90
2019-04-21T19:28:54.771Z,4.30
2019-04-21T19:31:38.518Z,3.93
2019-04-21T19:33:41.116Z,4.73
2019-04-21T19:36:03.449Z,4.53
2019-04-21T19:38:45.823Z,3.60
2019-04-21T19:41:24.612Z,4.70
2019-04-21T19:43:52.287Z,3.93
2019-04-21T19:46:23.713Z,4.90
2019-04-21T19:49:04.283Z,3.80
2019-04-21T19:51:24.509Z,4.20
2019-04-21T19:53:51.251Z,4.03
2019-04-21T19:56:14.138Z,4.00
2019-04-21T19:58:47.213Z,4.43
2019-04-21T20:01:15.293Z,3.97
2019-04-21T20:03:49.819Z,4.10
2019-04-21T20:06:33.157Z,4.10
2019-04-21T20:09:09.671Z,4.53
2019-04-21T20:11:38.736Z,3.90
2019-04-21T20:14:37.635Z,3.50
2019-04-21T20:16:42.727Z,4.20
2019-04-21T20:18:59.393Z,4.30
2019-04-21T20:21:25.368Z,4.37
2019-04-21T20:24:01.970Z,4.30
2019-04-21T20:26:30.524Z,3.93
2019-04-21T20:29:12.238Z,4.10
2019-04-21T20:31:47.076Z,4.70
2019-04-21T20:34:22.970Z,5.03
2019-04-21T20:37:00.014Z,4.10
2019-04-21T20:39:12.082Z,4.30
2019-04-21T20:41:49.985Z,4.20
2019-04-21T20:44:23.000Z,4.50
2019-04-21T20:46:59.792Z,4.10
2019-04-21T20:49:32.170Z,4.40
2019-04-21T20:52:14.107Z,4.00
2019-04-21T20:54:34.907Z,4.80
2019-04-21T20:57:11.435Z,3.83
2019-04-21T20:59:37.504Z,4.33
2019-04-21T21:02:16.615Z,4.30
2019-04-21T21:04:34.971Z,4.00
2019-04-21T21:07:28.291Z,4.30
2019-04-21T21:09:54.423Z,4.43
2019-04-21T21:14:45.692Z,4.33
2019-04-21T21:17:34.438Z,4.03
2019-04-21T21:19:52.808Z,4.50
2019-04-21T21:22:18.319Z,3.80
2019-04-21T21:24:53.927Z,4.60
2019-04-21T21:27:25.567Z,4.07
2019-04-21T21:29:56.556Z,4.23
2019-04-21T21:32:34.209Z,4.17
2019-04-21T21:35:02.978Z,3.93
2019-04-21T21:37:36.888Z,4.50
2019-04-21T21:40:04.119Z,4.20
2019-04-21T21:42:25.904Z,4.50
2019-04-21T21:45:00.764Z,4.33
2019-04-21T21:47:39.328Z,4.63
2019-04-21T21:50:04.730Z,4.80
2019-04-21T21:52:42.482Z,3.93
2019-04-21T21:54:55.920Z,4.13
2019-04-21T21:57:26.135Z,4.40
2019-04-21T22:00:02.575Z,5.27
2019-04-21T22:02:34.857Z,5.13
2019-04-21T22:05:08.776Z,4.67
2019-04-21T22:07:33.155Z,4.73
2019-04-21T22:10:02.442Z,4.93
2019-04-21T22:12:42.455Z,4.50
2019-04-21T22:15:12.636Z,4.90
2019-04-21T22:17:48.329Z,5.10
2019-04-21T22:20:28.796Z,5.03
2019-04-21T22:22:48.440Z,5.40
2019-04-21T22:25:19.609Z,6.73
2019-04-21T22:27:43.462Z,5.07
2019-04-21T22:30:14.782Z,5.43
2019-04-21T22:32:54.651Z,4.50
2019-04-21T22:35:28.438Z,4.90
2019-04-21T22:38:03.456Z,4.80
2019-04-21T22:40:29.674Z,5.27
2019-04-21T22:43:04.857Z,5.63
2019-04-21T22:45:23.169Z,5.23
2019-04-21T22:47:56.273Z,5.60
2019-04-21T22:50:26.582Z,5.30
2019-04-21T22:53:01.595Z,5.53
2019-04-21T22:55:31.595Z,4.90
2019-04-21T22:58:00.297Z,4.57
2019-04-21T23:00:39.046Z,5.40
2019-04-21T23:03:09.782Z,5.43
2019-04-21T23:05:37.339Z,5.60
2019-04-21T23:08:07.054Z,5.10
2019-04-21T23:10:40.517Z,5.67
2019-04-21T23:13:13.337Z,5.63
2019-04-21T23:15:47.101Z,5.70
2019-04-21T23:18:28.822Z,5.63
2019-04-21T23:20:57.765Z,5.33
2019-04-21T23:23:37.095Z,5.20
2019-04-21T23:26:01.184Z,4.60
2019-04-21T23:28:43.783Z,5.30
2019-04-21T23:31:06.937Z,4.73
2019-04-21T23:33:21.665Z,5.63
2019-04-21T23:35:59.132Z,5.30
2019-04-21T23:38:29.154Z,5.30
2019-04-21T23:40:57.961Z,5.07
2019-04-21T23:43:28.213Z,5.40
2019-04-21T23:45:57.207Z,5.50
2019-04-21T23:48:39.225Z,5.23
2019-04-21T23:51:14.399Z,5.30
2019-04-21T23:53:31.125Z,5.40
2019-04-21T23:56:01.287Z,5.30
2019-04-21T23:58:33.369Z,5.17
